sensor_id;sensor_type;location;lat;lon;timestamp;temperature;humidity
36818;DHT22;22761;51.542;16.450;2022-07-15T00:02:25;16.32;56.29
36818;DHT22;22761;51.542;16.450;2022-07-15T00:04:52;16.32;55.88
36818;DHT22;22761;51.542;16.450;2022-07-15T00:07:19;16.29;56.33
36818;DHT22;22761;51.542;16.450;2022-07-15T00:09:46;16.29;55.57
36818;DHT22;22761;51.542;16.450;2022-07-15T00:12:32;16.25;56.71
36818;DHT22;22761;51.542;16.450;2022-07-15T00:15:00;16.24;55.74
36818;DHT22;22761;51.542;16.450;2022-07-15T00:17:27;16.24;56.79
36818;DHT22;22761;51.542;16.450;2022-07-15T00:19:54;16.21;55.48
36818;DHT22;22761;51.542;16.450;2022-07-15T00:22:22;16.17;55.49
36818;DHT22;22761;51.542;16.450;2022-07-15T00:24:49;16.17;55.97
36818;DHT22;22761;51.542;16.450;2022-07-15T00:27:16;16.12;55.63
36818;DHT22;22761;51.542;16.450;2022-07-15T00:29:44;16.11;55.43
36818;DHT22;22761;51.542;16.450;2022-07-15T00:32:11;16.07;55.95
36818;DHT22;22761;51.542;16.450;2022-07-15T00:34:38;16.07;55.40
36818;DHT22;22761;51.542;16.450;2022-07-15T00:37:06;16.07;56.13
36818;DHT22;22761;51.542;16.450;2022-07-15T00:39:33;16.02;56.17
36818;DHT22;22761;51.542;16.450;2022-07-15T00:42:00;16.04;56.74
36818;DHT22;22761;51.542;16.450;2022-07-15T00:44:28;16.02;55.82
36818;DHT22;22761;51.542;16.450;2022-07-15T00:46:55;16.01;56.55
36818;DHT22;22761;51.542;16.450;2022-07-15T00:49:22;15.97;55.89
36818;DHT22;22761;51.542;16.450;2022-07-15T00:51:53;15.95;56.23
36818;DHT22;22761;51.542;16.450;2022-07-15T00:54:26;15.91;55.76
36818;DHT22;22761;51.542;16.450;2022-07-15T00:56:56;15.87;56.16
36818;DHT22;22761;51.542;16.450;2022-07-15T00:59:29;15.80;57.03
36818;DHT22;22761;51.542;16.450;2022-07-15T01:01:57;15.77;56.12
36818;DHT22;22761;51.542;16.450;2022-07-15T01:04:25;15.76;56.48
36818;DHT22;22761;51.542;16.450;2022-07-15T01:06:53;15.67;56.71
36818;DHT22;22761;51.542;16.450;2022-07-15T01:09:20;15.60;56.45
36818;DHT22;22761;51.542;16.450;2022-07-15T01:11:48;15.57;56.59
36818;DHT22;22761;51.542;16.450;2022-07-15T01:14:16;15.49;56.79
36818;DHT22;22761;51.542;16.450;2022-07-15T01:16:44;15.43;57.32
36818;DHT22;22761;51.542;16.450;2022-07-15T01:19:11;15.38;57.13
36818;DHT22;22761;51.542;16.450;2022-07-15T01:21:44;15.35;57.62
36818;DHT22;22761;51.542;16.450;2022-07-15T01:24:11;15.31;57.80
36818;DHT22;22761;51.542;16.450;2022-07-15T01:26:46;15.28;58.35
36818;DHT22;22761;51.542;16.450;2022-07-15T01:29:15;15.27;58.60
36818;DHT22;22761;51.542;16.450;2022-07-15T01:31:43;15.27;58.45
36818;DHT22;22761;51.542;16.450;2022-07-15T01:34:12;15.27;58.04
36818;DHT22;22761;51.542;16.450;2022-07-15T01:36:40;15.25;58.27
36818;DHT22;22761;51.542;16.450;2022-07-15T01:39:07;15.27;58.07
36818;DHT22;22761;51.542;16.450;2022-07-15T01:41:35;15.25;58.67
36818;DHT22;22761;51.542;16.450;2022-07-15T01:44:03;15.22;58.28
36818;DHT22;22761;51.542;16.450;2022-07-15T01:46:30;15.19;59.40
36818;DHT22;22761;51.542;16.450;2022-07-15T01:48:57;15.19;58.68
36818;DHT22;22761;51.542;16.450;2022-07-15T01:51:44;15.17;59.18
36818;DHT22;22761;51.542;16.450;2022-07-15T01:54:12;15.15;58.36
36818;DHT22;22761;51.542;16.450;2022-07-15T01:56:40;15.08;58.95
36818;DHT22;22761;51.542;16.450;2022-07-15T01:59:08;15.03;59.00
36818;DHT22;22761;51.542;16.450;2022-07-15T02:01:35;14.97;60.08
36818;DHT22;22761;51.542;16.450;2022-07-15T02:04:04;14.94;60.13
36818;DHT22;22761;51.542;16.450;2022-07-15T02:06:31;14.88;59.48
36818;DHT22;22761;51.542;16.450;2022-07-15T02:08:59;14.88;59.48
36818;DHT22;22761;51.542;16.450;2022-07-15T02:11:28;14.83;59.64
36818;DHT22;22761;51.542;16.450;2022-07-15T02:13:55;14.77;60.23
36818;DHT22;22761;51.542;16.450;2022-07-15T02:16:26;14.75;61.02
36818;DHT22;22761;51.542;16.450;2022-07-15T02:18:53;14.75;60.42
36818;DHT22;22761;51.542;16.450;2022-07-15T02:21:20;14.72;60.36
36818;DHT22;22761;51.542;16.450;2022-07-15T02:23:47;14.69;61.02
36818;DHT22;22761;51.542;16.450;2022-07-15T02:26:14;14.67;60.95
36818;DHT22;22761;51.542;16.450;2022-07-15T02:28:41;14.65;61.31
36818;DHT22;22761;51.542;16.450;2022-07-15T02:31:09;14.65;60.51
36818;DHT22;22761;51.542;16.450;2022-07-15T02:33:39;14.63;61.63
36818;DHT22;22761;51.542;16.450;2022-07-15T02:36:09;14.62;60.44
36818;DHT22;22761;51.542;16.450;2022-07-15T02:38:36;14.59;60.24
36818;DHT22;22761;51.542;16.450;2022-07-15T02:41:04;14.56;60.53
36818;DHT22;22761;51.542;16.450;2022-07-15T02:43:32;14.52;60.28
36818;DHT22;22761;51.542;16.450;2022-07-15T02:46:00;14.45;60.31
36818;DHT22;22761;51.542;16.450;2022-07-15T02:48:27;14.43;60.49
36818;DHT22;22761;51.542;16.450;2022-07-15T02:50:55;14.45;60.31
36818;DHT22;22761;51.542;16.450;2022-07-15T02:53:22;14.42;60.21
36818;DHT22;22761;51.542;16.450;2022-07-15T02:55:51;14.41;61.78
36818;DHT22;22761;51.542;16.450;2022-07-15T02:58:18;14.41;60.51
36818;DHT22;22761;51.542;16.450;2022-07-15T03:00:47;14.36;60.16
36818;DHT22;22761;51.542;16.450;2022-07-15T03:03:14;14.32;62.15
36818;DHT22;22761;51.542;16.450;2022-07-15T03:05:43;14.29;60.72
36818;DHT22;22761;51.542;16.450;2022-07-15T03:08:10;14.25;61.00
36818;DHT22;22761;51.542;16.450;2022-07-15T03:10:38;14.22;60.74
36818;DHT22;22761;51.542;16.450;2022-07-15T03:13:06;14.20;60.53
36818;DHT22;22761;51.542;16.450;2022-07-15T03:15:33;14.15;60.63
36818;DHT22;22761;51.542;16.450;2022-07-15T03:18:00;14.11;60.99
36818;DHT22;22761;51.542;16.450;2022-07-15T03:20:27;14.10;61.10
36818;DHT22;22761;51.542;16.450;2022-07-15T03:22:54;14.05;61.06
36818;DHT22;22761;51.542;16.450;2022-07-15T03:25:21;14.04;61.68
36818;DHT22;22761;51.542;16.450;2022-07-15T03:27:49;14.04;61.08
36818;DHT22;22761;51.542;16.450;2022-07-15T03:30:15;14.03;61.17
36818;DHT22;22761;51.542;16.450;2022-07-15T03:32:43;14.00;63.46
36818;DHT22;22761;51.542;16.450;2022-07-15T03:35:10;14.05;62.31
36818;DHT22;22761;51.542;16.450;2022-07-15T03:37:38;14.10;62.37
36818;DHT22;22761;51.542;16.450;2022-07-15T03:40:06;14.13;63.09
36818;DHT22;22761;51.542;16.450;2022-07-15T03:42:35;14.18;62.12
36818;DHT22;22761;51.542;16.450;2022-07-15T03:45:02;14.20;62.65
36818;DHT22;22761;51.542;16.450;2022-07-15T03:47:31;14.20;61.24
36818;DHT22;22761;51.542;16.450;2022-07-15T03:50:00;14.22;61.59
36818;DHT22;22761;51.542;16.450;2022-07-15T03:52:27;14.25;61.17
36818;DHT22;22761;51.542;16.450;2022-07-15T03:54:54;14.27;61.33
36818;DHT22;22761;51.542;16.450;2022-07-15T03:57:21;14.27;61.59
36818;DHT22;22761;51.542;16.450;2022-07-15T03:59:50;14.27;61.18
36818;DHT22;22761;51.542;16.450;2022-07-15T04:02:18;14.25;61.12
36818;DHT22;22761;51.542;16.450;2022-07-15T04:04:45;14.25;60.98
36818;DHT22;22761;51.542;16.450;2022-07-15T04:07:12;14.27;61.41
36818;DHT22;22761;51.542;16.450;2022-07-15T04:09:39;14.28;62.00
36818;DHT22;22761;51.542;16.450;2022-07-15T04:12:08;14.29;60.90
36818;DHT22;22761;51.542;16.450;2022-07-15T04:14:37;14.29;60.66
36818;DHT22;22761;51.542;16.450;2022-07-15T04:17:04;14.29;60.72
36818;DHT22;22761;51.542;16.450;2022-07-15T04:19:36;14.31;60.51
36818;DHT22;22761;51.542;16.450;2022-07-15T04:22:05;14.32;60.32
36818;DHT22;22761;51.542;16.450;2022-07-15T04:24:33;14.33;60.61
36818;DHT22;22761;51.542;16.450;2022-07-15T04:27:00;14.38;60.08
36818;DHT22;22761;51.542;16.450;2022-07-15T04:29:27;14.39;59.77
36818;DHT22;22761;51.542;16.450;2022-07-15T04:31:55;14.43;60.13
36818;DHT22;22761;51.542;16.450;2022-07-15T04:34:24;14.45;60.06
36818;DHT22;22761;51.542;16.450;2022-07-15T04:36:52;14.49;60.05
36818;DHT22;22761;51.542;16.450;2022-07-15T04:39:19;14.51;59.99
36818;DHT22;22761;51.542;16.450;2022-07-15T04:41:46;14.58;59.80
36818;DHT22;22761;51.542;16.450;2022-07-15T04:44:14;14.59;59.74
36818;DHT22;22761;51.542;16.450;2022-07-15T04:46:41;14.63;60.20
36818;DHT22;22761;51.542;16.450;2022-07-15T04:49:15;14.69;60.17
36818;DHT22;22761;51.542;16.450;2022-07-15T04:52:01;14.77;60.35
36818;DHT22;22761;51.542;16.450;2022-07-15T04:54:28;14.86;60.01
36818;DHT22;22761;51.542;16.450;2022-07-15T04:56:56;14.91;59.49
36818;DHT22;22761;51.542;16.450;2022-07-15T04:59:23;14.97;59.36
36818;DHT22;22761;51.542;16.450;2022-07-15T05:01:50;15.00;59.25
36818;DHT22;22761;51.542;16.450;2022-07-15T05:04:19;15.01;59.49
36818;DHT22;22761;51.542;16.450;2022-07-15T05:06:46;15.04;59.28
36818;DHT22;22761;51.542;16.450;2022-07-15T05:09:13;15.07;59.35
36818;DHT22;22761;51.542;16.450;2022-07-15T05:11:40;15.11;59.17
36818;DHT22;22761;51.542;16.450;2022-07-15T05:14:07;15.15;58.76
36818;DHT22;22761;51.542;16.450;2022-07-15T05:16:34;15.17;58.46
36818;DHT22;22761;51.542;16.450;2022-07-15T05:19:01;15.18;58.89
36818;DHT22;22761;51.542;16.450;2022-07-15T05:21:28;15.23;58.49
36818;DHT22;22761;51.542;16.450;2022-07-15T05:23:56;15.23;58.72
36818;DHT22;22761;51.542;16.450;2022-07-15T05:26:22;15.28;58.29
36818;DHT22;22761;51.542;16.450;2022-07-15T05:28:50;15.32;58.63
36818;DHT22;22761;51.542;16.450;2022-07-15T05:31:17;15.37;58.44
36818;DHT22;22761;51.542;16.450;2022-07-15T05:33:46;15.39;58.16
36818;DHT22;22761;51.542;16.450;2022-07-15T05:36:14;15.43;58.33
36818;DHT22;22761;51.542;16.450;2022-07-15T05:38:43;15.46;58.46
36818;DHT22;22761;51.542;16.450;2022-07-15T05:41:11;15.50;58.45
36818;DHT22;22761;51.542;16.450;2022-07-15T05:43:38;15.53;58.51
36818;DHT22;22761;51.542;16.450;2022-07-15T05:46:06;15.57;58.34
36818;DHT22;22761;51.542;16.450;2022-07-15T05:48:35;15.60;58.35
36818;DHT22;22761;51.542;16.450;2022-07-15T05:51:04;15.63;58.56
36818;DHT22;22761;51.542;16.450;2022-07-15T05:53:31;15.67;58.59
36818;DHT22;22761;51.542;16.450;2022-07-15T05:55:59;15.70;58.88
36818;DHT22;22761;51.542;16.450;2022-07-15T05:58:27;15.74;58.79
36818;DHT22;22761;51.542;16.450;2022-07-15T06:00:54;15.80;58.64
36818;DHT22;22761;51.542;16.450;2022-07-15T06:03:24;15.81;58.30
36818;DHT22;22761;51.542;16.450;2022-07-15T06:05:51;15.88;58.31
36818;DHT22;22761;51.542;16.450;2022-07-15T06:08:19;15.93;58.04
36818;DHT22;22761;51.542;16.450;2022-07-15T06:10:46;15.97;57.87
36818;DHT22;22761;51.542;16.450;2022-07-15T06:13:14;16.01;57.88
36818;DHT22;22761;51.542;16.450;2022-07-15T06:15:42;16.08;57.94
36818;DHT22;22761;51.542;16.450;2022-07-15T06:18:10;16.14;58.59
36818;DHT22;22761;51.542;16.450;2022-07-15T06:20:37;16.24;57.73
36818;DHT22;22761;51.542;16.450;2022-07-15T06:23:05;16.28;57.59
36818;DHT22;22761;51.542;16.450;2022-07-15T06:25:34;16.31;57.44
36818;DHT22;22761;51.542;16.450;2022-07-15T06:28:01;16.31;57.38
36818;DHT22;22761;51.542;16.450;2022-07-15T06:30:29;16.36;57.33
36818;DHT22;22761;51.542;16.450;2022-07-15T06:32:57;16.38;57.19
36818;DHT22;22761;51.542;16.450;2022-07-15T06:35:26;16.40;55.81
36818;DHT22;22761;51.542;16.450;2022-07-15T06:37:53;16.46;55.79
36818;DHT22;22761;51.542;16.450;2022-07-15T06:40:22;16.52;55.36
36818;DHT22;22761;51.542;16.450;2022-07-15T06:42:49;16.57;55.48
36818;DHT22;22761;51.542;16.450;2022-07-15T06:45:19;16.66;54.10
36818;DHT22;22761;51.542;16.450;2022-07-15T06:47:51;16.75;54.24
36818;DHT22;22761;51.542;16.450;2022-07-15T06:50:18;16.78;53.80
36818;DHT22;22761;51.542;16.450;2022-07-15T06:52:47;16.81;52.01
36818;DHT22;22761;51.542;16.450;2022-07-15T06:55:14;16.90;51.93
36818;DHT22;22761;51.542;16.450;2022-07-15T06:57:41;16.91;52.13
36818;DHT22;22761;51.542;16.450;2022-07-15T07:00:09;16.92;51.52
36818;DHT22;22761;51.542;16.450;2022-07-15T07:02:38;16.94;51.88
36818;DHT22;22761;51.542;16.450;2022-07-15T07:05:06;16.97;51.12
36818;DHT22;22761;51.542;16.450;2022-07-15T07:07:34;17.00;51.04
36818;DHT22;22761;51.542;16.450;2022-07-15T07:10:03;17.05;51.24
36818;DHT22;22761;51.542;16.450;2022-07-15T07:12:31;17.11;51.13
36818;DHT22;22761;51.542;16.450;2022-07-15T07:14:58;17.17;50.35
36818;DHT22;22761;51.542;16.450;2022-07-15T07:17:27;17.18;51.11
36818;DHT22;22761;51.542;16.450;2022-07-15T07:19:54;17.25;50.67
36818;DHT22;22761;51.542;16.450;2022-07-15T07:22:22;17.26;50.12
36818;DHT22;22761;51.542;16.450;2022-07-15T07:24:49;17.30;50.45
36818;DHT22;22761;51.542;16.450;2022-07-15T07:27:16;17.35;51.04
36818;DHT22;22761;51.542;16.450;2022-07-15T07:29:43;17.45;51.37
36818;DHT22;22761;51.542;16.450;2022-07-15T07:32:10;17.62;50.56
36818;DHT22;22761;51.542;16.450;2022-07-15T07:34:37;17.80;50.89
36818;DHT22;22761;51.542;16.450;2022-07-15T07:37:03;17.94;49.72
36818;DHT22;22761;51.542;16.450;2022-07-15T07:39:31;18.02;49.82
36818;DHT22;22761;51.542;16.450;2022-07-15T07:41:58;18.07;49.31
36818;DHT22;22761;51.542;16.450;2022-07-15T07:44:24;18.09;49.07
36818;DHT22;22761;51.542;16.450;2022-07-15T07:46:51;18.09;48.37
36818;DHT22;22761;51.542;16.450;2022-07-15T07:49:18;18.09;49.07
36818;DHT22;22761;51.542;16.450;2022-07-15T07:51:45;18.13;48.24
36818;DHT22;22761;51.542;16.450;2022-07-15T07:54:12;18.15;48.05
36818;DHT22;22761;51.542;16.450;2022-07-15T07:56:39;18.16;48.06
36818;DHT22;22761;51.542;16.450;2022-07-15T07:59:06;18.18;47.43
36818;DHT22;22761;51.542;16.450;2022-07-15T08:01:33;18.15;47.38
36818;DHT22;22761;51.542;16.450;2022-07-15T08:04:01;18.22;46.36
36818;DHT22;22761;51.542;16.450;2022-07-15T08:06:28;18.22;45.62
36818;DHT22;22761;51.542;16.450;2022-07-15T08:08:55;18.25;45.33
36818;DHT22;22761;51.542;16.450;2022-07-15T08:11:22;18.35;44.15
36818;DHT22;22761;51.542;16.450;2022-07-15T08:13:49;18.42;44.29
36818;DHT22;22761;51.542;16.450;2022-07-15T08:16:16;18.43;45.22
36818;DHT22;22761;51.542;16.450;2022-07-15T08:18:43;18.46;45.99
36818;DHT22;22761;51.542;16.450;2022-07-15T08:21:10;18.49;45.16
36818;DHT22;22761;51.542;16.450;2022-07-15T08:23:37;18.50;45.09
36818;DHT22;22761;51.542;16.450;2022-07-15T08:26:05;18.52;45.35
36818;DHT22;22761;51.542;16.450;2022-07-15T08:28:32;18.59;43.51
36818;DHT22;22761;51.542;16.450;2022-07-15T08:31:00;18.62;43.48
36818;DHT22;22761;51.542;16.450;2022-07-15T08:33:27;18.71;44.39
36818;DHT22;22761;51.542;16.450;2022-07-15T08:35:54;18.80;43.72
36818;DHT22;22761;51.542;16.450;2022-07-15T08:38:22;18.87;43.97
36818;DHT22;22761;51.542;16.450;2022-07-15T08:40:49;18.94;44.20
36818;DHT22;22761;51.542;16.450;2022-07-15T08:43:16;18.99;42.12
36818;DHT22;22761;51.542;16.450;2022-07-15T08:45:43;18.94;41.39
36818;DHT22;22761;51.542;16.450;2022-07-15T08:48:10;18.90;42.20
36818;DHT22;22761;51.542;16.450;2022-07-15T08:50:41;18.85;42.17
36818;DHT22;22761;51.542;16.450;2022-07-15T08:53:08;18.91;43.41
36818;DHT22;22761;51.542;16.450;2022-07-15T08:55:35;18.99;42.78
36818;DHT22;22761;51.542;16.450;2022-07-15T08:58:02;19.10;42.04
36818;DHT22;22761;51.542;16.450;2022-07-15T09:00:29;19.10;42.46
36818;DHT22;22761;51.542;16.450;2022-07-15T09:03:01;19.03;42.28
36818;DHT22;22761;51.542;16.450;2022-07-15T09:05:33;19.05;42.41
36818;DHT22;22761;51.542;16.450;2022-07-15T09:08:13;19.02;42.42
36818;DHT22;22761;51.542;16.450;2022-07-15T09:10:52;19.01;42.34
36818;DHT22;22761;51.542;16.450;2022-07-15T09:13:37;19.02;42.32
36818;DHT22;22761;51.542;16.450;2022-07-15T09:16:11;19.05;41.31
36818;DHT22;22761;51.542;16.450;2022-07-15T09:18:44;19.10;41.53
36818;DHT22;22761;51.542;16.450;2022-07-15T09:21:23;19.19;41.83
36818;DHT22;22761;51.542;16.450;2022-07-15T09:23:53;19.29;42.62
36818;DHT22;22761;51.542;16.450;2022-07-15T09:26:32;19.46;42.08
36818;DHT22;22761;51.542;16.450;2022-07-15T09:29:00;19.60;42.05
36818;DHT22;22761;51.542;16.450;2022-07-15T09:31:30;19.78;42.05
36818;DHT22;22761;51.542;16.450;2022-07-15T09:34:16;19.89;41.24
36818;DHT22;22761;51.542;16.450;2022-07-15T09:36:48;19.97;41.13
36818;DHT22;22761;51.542;16.450;2022-07-15T09:39:24;19.99;41.34
36818;DHT22;22761;51.542;16.450;2022-07-15T09:41:52;20.05;40.32
36818;DHT22;22761;51.542;16.450;2022-07-15T09:44:22;20.11;40.67
36818;DHT22;22761;51.542;16.450;2022-07-15T09:46:59;20.12;40.88
36818;DHT22;22761;51.542;16.450;2022-07-15T09:49:30;20.13;41.31
36818;DHT22;22761;51.542;16.450;2022-07-15T09:52:06;20.11;41.41
36818;DHT22;22761;51.542;16.450;2022-07-15T09:54:41;19.92;42.05
36818;DHT22;22761;51.542;16.450;2022-07-15T09:57:09;19.84;42.16
36818;DHT22;22761;51.542;16.450;2022-07-15T09:59:37;19.78;42.26
36818;DHT22;22761;51.542;16.450;2022-07-15T10:02:04;19.71;42.19
36818;DHT22;22761;51.542;16.450;2022-07-15T10:04:31;19.64;42.47
36818;DHT22;22761;51.542;16.450;2022-07-15T10:06:59;19.58;42.44
36818;DHT22;22761;51.542;16.450;2022-07-15T10:09:29;19.57;42.92
36818;DHT22;22761;51.542;16.450;2022-07-15T10:12:14;19.64;42.83
36818;DHT22;22761;51.542;16.450;2022-07-15T10:17:47;19.89;41.37
36818;DHT22;22761;51.542;16.450;2022-07-15T10:20:46;20.15;39.59
36818;DHT22;22761;51.542;16.450;2022-07-15T10:26:38;20.46;39.46
36818;DHT22;22761;51.542;16.450;2022-07-15T10:29:06;20.79;40.83
36818;DHT22;22761;51.542;16.450;2022-07-15T10:31:36;21.37;39.09
36818;DHT22;22761;51.542;16.450;2022-07-15T10:39:24;21.56;38.16
36818;DHT22;22761;51.542;16.450;2022-07-15T10:42:03;21.39;38.43
36818;DHT22;22761;51.542;16.450;2022-07-15T10:44:37;21.54;37.79
36818;DHT22;22761;51.542;16.450;2022-07-15T10:47:17;22.19;36.76
36818;DHT22;22761;51.542;16.450;2022-07-15T10:49:48;23.20;34.17
36818;DHT22;22761;51.542;16.450;2022-07-15T11:03:04;24.10;31.72
36818;DHT22;22761;51.542;16.450;2022-07-15T11:05:32;24.37;31.57
36818;DHT22;22761;51.542;16.450;2022-07-15T11:08:00;24.77;31.97
36818;DHT22;22761;51.542;16.450;2022-07-15T11:10:27;25.01;32.03
36818;DHT22;22761;51.542;16.450;2022-07-15T11:12:57;25.17;31.37
36818;DHT22;22761;51.542;16.450;2022-07-15T11:15:26;24.86;32.21
36818;DHT22;22761;51.542;16.450;2022-07-15T11:17:56;24.62;32.60
36818;DHT22;22761;51.542;16.450;2022-07-15T11:20:28;24.75;32.83
36818;DHT22;22761;51.542;16.450;2022-07-15T11:22:57;24.71;31.66
36818;DHT22;22761;51.542;16.450;2022-07-15T11:25:30;24.43;32.22
36818;DHT22;22761;51.542;16.450;2022-07-15T11:28:14;24.37;33.12
36818;DHT22;22761;51.542;16.450;2022-07-15T11:30:46;25.15;31.19
36818;DHT22;22761;51.542;16.450;2022-07-15T11:33:22;25.71;31.21
36818;DHT22;22761;51.542;16.450;2022-07-15T11:35:55;25.84;31.54
36818;DHT22;22761;51.542;16.450;2022-07-15T11:38:26;25.36;30.77
36818;DHT22;22761;51.542;16.450;2022-07-15T11:41:00;24.64;31.57
36818;DHT22;22761;51.542;16.450;2022-07-15T11:43:58;23.99;33.31
36818;DHT22;22761;51.542;16.450;2022-07-15T11:46:46;23.48;33.75
36818;DHT22;22761;51.542;16.450;2022-07-15T11:49:34;23.07;34.56
36818;DHT22;22761;51.542;16.450;2022-07-15T11:52:25;22.63;35.15
36818;DHT22;22761;51.542;16.450;2022-07-15T11:54:43;22.64;35.35
36818;DHT22;22761;51.542;16.450;2022-07-15T11:57:11;23.01;34.90
36818;DHT22;22761;51.542;16.450;2022-07-15T11:59:40;22.91;34.97
36818;DHT22;22761;51.542;16.450;2022-07-15T12:02:10;23.30;35.56
36818;DHT22;22761;51.542;16.450;2022-07-15T12:04:39;23.93;34.00
36818;DHT22;22761;51.542;16.450;2022-07-15T12:07:07;23.99;34.50
36818;DHT22;22761;51.542;16.450;2022-07-15T12:09:47;23.92;33.71
36818;DHT22;22761;51.542;16.450;2022-07-15T12:12:16;23.62;34.04
36818;DHT22;22761;51.542;16.450;2022-07-15T12:14:50;23.32;34.78
36818;DHT22;22761;51.542;16.450;2022-07-15T12:17:18;23.71;34.27
36818;DHT22;22761;51.542;16.450;2022-07-15T12:19:50;24.43;33.52
36818;DHT22;22761;51.542;16.450;2022-07-15T12:22:21;25.20;31.49
36818;DHT22;22761;51.542;16.450;2022-07-15T12:24:50;25.33;31.61
36818;DHT22;22761;51.542;16.450;2022-07-15T12:27:36;25.03;32.01
36818;DHT22;22761;51.542;16.450;2022-07-15T12:30:07;24.67;33.35
36818;DHT22;22761;51.542;16.450;2022-07-15T12:32:34;24.77;32.10
36818;DHT22;22761;51.542;16.450;2022-07-15T12:35:04;25.06;32.33
36818;DHT22;22761;51.542;16.450;2022-07-15T12:37:47;25.32;30.74
36818;DHT22;22761;51.542;16.450;2022-07-15T12:40:23;25.37;30.32
36818;DHT22;22761;51.542;16.450;2022-07-15T12:42:52;25.26;30.75
36818;DHT22;22761;51.542;16.450;2022-07-15T12:48:09;24.72;30.72
36818;DHT22;22761;51.542;16.450;2022-07-15T12:53:20;24.02;32.61
36818;DHT22;22761;51.542;16.450;2022-07-15T12:55:50;23.88;32.83
36818;DHT22;22761;51.542;16.450;2022-07-15T12:58:27;24.08;33.00
36818;DHT22;22761;51.542;16.450;2022-07-15T13:01:11;24.17;32.69
36818;DHT22;22761;51.542;16.450;2022-07-15T13:03:39;24.28;33.35
36818;DHT22;22761;51.542;16.450;2022-07-15T13:06:08;24.55;32.28
36818;DHT22;22761;51.542;16.450;2022-07-15T13:08:38;24.74;32.33
36818;DHT22;22761;51.542;16.450;2022-07-15T13:11:08;25.02;30.92
36818;DHT22;22761;51.542;16.450;2022-07-15T13:13:39;25.03;30.46
36818;DHT22;22761;51.542;16.450;2022-07-15T13:16:08;24.89;31.27
36818;DHT22;22761;51.542;16.450;2022-07-15T13:18:36;24.72;31.42
36818;DHT22;22761;51.542;16.450;2022-07-15T13:21:04;24.62;30.84
36818;DHT22;22761;51.542;16.450;2022-07-15T13:23:32;24.47;31.64
36818;DHT22;22761;51.542;16.450;2022-07-15T13:26:01;24.50;31.94
36818;DHT22;22761;51.542;16.450;2022-07-15T13:28:28;24.75;31.62
36818;DHT22;22761;51.542;16.450;2022-07-15T13:30:55;25.03;31.78
36818;DHT22;22761;51.542;16.450;2022-07-15T13:33:23;25.30;30.70
36818;DHT22;22761;51.542;16.450;2022-07-15T13:35:51;25.50;31.03
36818;DHT22;22761;51.542;16.450;2022-07-15T13:38:17;25.64;30.10
36818;DHT22;22761;51.542;16.450;2022-07-15T13:40:44;25.67;30.10
36818;DHT22;22761;51.542;16.450;2022-07-15T13:43:12;25.72;30.59
36818;DHT22;22761;51.542;16.450;2022-07-15T13:45:40;25.82;29.33
36818;DHT22;22761;51.542;16.450;2022-07-15T13:48:07;25.82;29.45
36818;DHT22;22761;51.542;16.450;2022-07-15T13:50:33;25.65;28.85
36818;DHT22;22761;51.542;16.450;2022-07-15T13:53:19;25.50;29.35
36818;DHT22;22761;51.542;16.450;2022-07-15T13:55:46;25.45;30.28
36818;DHT22;22761;51.542;16.450;2022-07-15T13:58:13;25.38;29.34
36818;DHT22;22761;51.542;16.450;2022-07-15T14:00:40;25.25;29.92
36818;DHT22;22761;51.542;16.450;2022-07-15T14:03:09;25.08;29.66
36818;DHT22;22761;51.542;16.450;2022-07-15T14:05:36;24.82;30.38
36818;DHT22;22761;51.542;16.450;2022-07-15T14:08:04;24.68;30.34
36818;DHT22;22761;51.542;16.450;2022-07-15T14:10:32;24.42;30.43
36818;DHT22;22761;51.542;16.450;2022-07-15T14:12:59;24.21;30.69
36818;DHT22;22761;51.542;16.450;2022-07-15T14:15:26;24.02;31.07
36818;DHT22;22761;51.542;16.450;2022-07-15T14:17:53;23.78;31.55
36818;DHT22;22761;51.542;16.450;2022-07-15T14:20:21;23.54;31.85
36818;DHT22;22761;51.542;16.450;2022-07-15T14:22:48;23.36;31.64
36818;DHT22;22761;51.542;16.450;2022-07-15T14:25:15;23.43;31.94
36818;DHT22;22761;51.542;16.450;2022-07-15T14:27:42;23.53;31.83
36818;DHT22;22761;51.542;16.450;2022-07-15T14:30:09;23.46;32.39
36818;DHT22;22761;51.542;16.450;2022-07-15T14:32:36;23.40;32.69
36818;DHT22;22761;51.542;16.450;2022-07-15T14:35:05;23.34;32.51
36818;DHT22;22761;51.542;16.450;2022-07-15T14:37:33;23.26;32.18
36818;DHT22;22761;51.542;16.450;2022-07-15T14:40:00;23.09;33.18
36818;DHT22;22761;51.542;16.450;2022-07-15T14:42:27;22.98;32.81
36818;DHT22;22761;51.542;16.450;2022-07-15T14:44:55;22.86;33.38
36818;DHT22;22761;51.542;16.450;2022-07-15T14:47:22;22.76;33.53
36818;DHT22;22761;51.542;16.450;2022-07-15T14:49:49;22.61;33.70
36818;DHT22;22761;51.542;16.450;2022-07-15T14:52:18;22.46;33.79
36818;DHT22;22761;51.542;16.450;2022-07-15T14:54:46;22.37;33.68
36818;DHT22;22761;51.542;16.450;2022-07-15T14:57:14;22.29;34.13
36818;DHT22;22761;51.542;16.450;2022-07-15T14:59:41;22.31;34.29
36818;DHT22;22761;51.542;16.450;2022-07-15T15:02:10;22.31;34.12
36818;DHT22;22761;51.542;16.450;2022-07-15T15:04:37;22.23;34.43
36818;DHT22;22761;51.542;16.450;2022-07-15T15:07:04;22.20;35.06
36818;DHT22;22761;51.542;16.450;2022-07-15T15:09:31;22.13;35.11
36818;DHT22;22761;51.542;16.450;2022-07-15T15:11:58;22.09;35.23
36818;DHT22;22761;51.542;16.450;2022-07-15T15:14:25;22.22;35.03
36818;DHT22;22761;51.542;16.450;2022-07-15T15:16:52;22.37;34.47
36818;DHT22;22761;51.542;16.450;2022-07-15T15:19:19;22.53;35.03
36818;DHT22;22761;51.542;16.450;2022-07-15T15:21:47;22.75;33.60
36818;DHT22;22761;51.542;16.450;2022-07-15T15:24:15;23.03;32.96
36818;DHT22;22761;51.542;16.450;2022-07-15T15:26:42;23.23;33.29
36818;DHT22;22761;51.542;16.450;2022-07-15T15:29:09;23.36;33.22
36818;DHT22;22761;51.542;16.450;2022-07-15T15:31:36;23.41;33.15
36818;DHT22;22761;51.542;16.450;2022-07-15T15:34:03;23.55;32.93
36818;DHT22;22761;51.542;16.450;2022-07-15T15:36:30;23.61;32.72
36818;DHT22;22761;51.542;16.450;2022-07-15T15:38:57;23.57;32.38
36818;DHT22;22761;51.542;16.450;2022-07-15T15:41:24;23.34;32.50
36818;DHT22;22761;51.542;16.450;2022-07-15T15:43:52;23.15;32.84
36818;DHT22;22761;51.542;16.450;2022-07-15T15:46:20;23.03;33.98
36818;DHT22;22761;51.542;16.450;2022-07-15T15:48:47;23.10;33.30
36818;DHT22;22761;51.542;16.450;2022-07-15T15:51:14;23.18;32.48
36818;DHT22;22761;51.542;16.450;2022-07-15T15:53:41;23.15;33.04
36818;DHT22;22761;51.542;16.450;2022-07-15T15:56:08;23.03;33.31